createdAt,value
2023-03-14T00:00:17.316Z,2.47
2023-03-14T00:02:44.749Z,2.70
2023-03-14T00:05:12.173Z,3.38
2023-03-14T00:07:40.603Z,2.88
2023-03-14T00:10:14.326Z,2.25
2023-03-14T00:12:42.501Z,2.50
2023-03-14T00:15:10.708Z,2.85
2023-03-14T00:17:38.266Z,2.60
2023-03-14T00:20:09.358Z,3.05
2023-03-14T00:22:37.055Z,2.20
2023-03-14T00:25:06.614Z,1.88
2023-03-14T00:27:34.174Z,2.08
2023-03-14T00:30:02.569Z,2.20
2023-03-14T00:32:30.067Z,2.00
2023-03-14T00:34:57.447Z,2.40
2023-03-14T00:37:24.810Z,2.80
2023-03-14T00:39:52.867Z,2.38
2023-03-14T00:42:20.391Z,1.80
2023-03-14T00:44:49.559Z,2.25
2023-03-14T00:47:17.070Z,2.60
2023-03-14T00:49:44.481Z,2.40
2023-03-14T00:52:12.792Z,2.30
2023-03-14T00:54:40.189Z,2.10
2023-03-14T00:57:07.433Z,2.65
2023-03-14T00:59:34.800Z,2.38
2023-03-14T01:02:02.355Z,2.30
2023-03-14T01:04:31.332Z,2.63
2023-03-14T01:06:58.922Z,2.50
2023-03-14T01:09:26.746Z,2.45
2023-03-14T01:11:54.190Z,2.40
2023-03-14T01:14:21.622Z,2.85
2023-03-14T01:16:49.134Z,2.60
2023-03-14T01:19:16.533Z,2.58
2023-03-14T01:21:43.995Z,2.45
2023-03-14T01:24:12.251Z,2.70
2023-03-14T01:26:39.524Z,2.53
2023-03-14T01:29:08.036Z,2.95
2023-03-14T01:31:38.080Z,2.88
2023-03-14T01:34:05.817Z,3.45
2023-03-14T01:36:33.241Z,3.47
2023-03-14T01:39:02.415Z,3.03
2023-03-14T01:41:30.243Z,2.80
2023-03-14T01:43:59.338Z,3.20
2023-03-14T01:46:47.058Z,2.60
2023-03-14T01:49:20.795Z,2.72
2023-03-14T01:52:07.057Z,3.67
2023-03-14T01:54:38.939Z,2.58
2023-03-14T01:57:15.502Z,2.40
2023-03-14T01:59:48.134Z,2.58
2023-03-14T02:02:16.641Z,2.70
2023-03-14T02:04:44.579Z,2.65
2023-03-14T02:07:20.300Z,1.83
2023-03-14T02:10:15.670Z,1.88
2023-03-14T02:12:43.768Z,1.77
2023-03-14T02:15:27.519Z,1.38
2023-03-14T02:18:00.897Z,1.67
2023-03-14T02:21:10.195Z,2.03
2023-03-14T02:23:58.837Z,1.45
2023-03-14T02:26:35.369Z,1.60
2023-03-14T02:29:03.019Z,1.20
2023-03-14T02:31:31.124Z,1.13
2023-03-14T02:33:58.948Z,1.95
2023-03-14T02:36:26.505Z,0.98
2023-03-14T02:39:04.332Z,1.20
2023-03-14T02:41:32.019Z,1.13
2023-03-14T02:44:02.751Z,1.58
2023-03-14T02:46:30.464Z,1.13
2023-03-14T02:49:06.412Z,1.50
2023-03-14T02:51:33.966Z,0.75
2023-03-14T02:54:01.952Z,1.50
2023-03-14T02:56:29.196Z,1.30
2023-03-14T02:58:58.781Z,1.10
2023-03-14T03:01:42.469Z,1.10
2023-03-14T03:04:09.881Z,0.90
2023-03-14T03:06:37.194Z,0.85
2023-03-14T03:09:04.497Z,1.00
2023-03-14T03:11:32.658Z,0.98
2023-03-14T03:14:00.193Z,0.80
2023-03-14T03:16:29.219Z,1.27
2023-03-14T03:18:59.202Z,0.73
2023-03-14T03:21:26.918Z,0.73
2023-03-14T03:23:54.237Z,1.23
2023-03-14T03:26:21.547Z,1.02
2023-03-14T03:28:51.847Z,0.95
2023-03-14T03:31:19.399Z,0.80
2023-03-14T03:33:47.998Z,0.70
2023-03-14T03:36:15.357Z,0.82
2023-03-14T03:38:42.740Z,0.60
2023-03-14T03:41:10.484Z,1.08
2023-03-14T03:43:38.249Z,0.65
2023-03-14T03:46:07.779Z,0.63
2023-03-14T03:48:35.824Z,0.60
2023-03-14T03:53:34.262Z,0.70
2023-03-14T03:56:10.085Z,0.60
2023-03-14T03:58:39.824Z,0.60
2023-03-14T04:03:36.660Z,0.70
2023-03-14T04:06:07.127Z,0.50
2023-03-14T04:08:37.372Z,0.77
2023-03-14T04:11:05.050Z,0.57
2023-03-14T04:13:58.235Z,0.43
2023-03-14T04:16:26.486Z,0.70
2023-03-14T04:19:00.045Z,0.60
2023-03-14T04:21:27.941Z,0.50
2023-03-14T04:26:27.861Z,0.40
2023-03-14T04:28:55.232Z,0.57
2023-03-14T04:31:23.676Z,0.35
2023-03-14T04:33:52.395Z,0.30
2023-03-14T04:36:26.745Z,0.40
2023-03-14T04:38:54.490Z,0.40
2023-03-14T04:41:22.637Z,0.45
2023-03-14T04:43:50.034Z,0.70
2023-03-14T04:46:17.457Z,0.47
2023-03-14T04:48:45.231Z,0.30
2023-03-14T04:51:13.121Z,0.60
2023-03-14T04:53:43.942Z,0.60
2023-03-14T04:56:13.975Z,0.70
2023-03-14T04:58:43.503Z,0.70
2023-03-14T05:01:11.477Z,1.17
2023-03-14T05:04:02.256Z,2.00
2023-03-14T05:06:55.924Z,1.58
2023-03-14T05:09:47.196Z,1.80
2023-03-14T05:12:32.813Z,2.33
2023-03-14T05:15:20.040Z,1.92
2023-03-14T05:18:23.112Z,2.13
2023-03-14T05:20:58.528Z,2.30
2023-03-14T05:23:44.113Z,2.33
2023-03-14T05:26:31.599Z,2.60
2023-03-14T05:29:18.402Z,3.50
2023-03-14T05:31:57.193Z,2.13
2023-03-14T05:34:38.330Z,2.08
2023-03-14T05:37:26.917Z,3.25
2023-03-14T05:40:07.299Z,2.80
2023-03-14T05:42:57.398Z,2.83
2023-03-14T05:45:38.316Z,2.55
2023-03-14T05:48:22.746Z,2.72
2023-03-14T05:51:10.430Z,3.05
2023-03-14T05:53:58.196Z,3.55
2023-03-14T05:56:42.974Z,3.38
2023-03-14T05:59:33.249Z,2.95
2023-03-14T06:02:06.611Z,2.53
2023-03-14T06:04:44.632Z,2.40
2023-03-14T06:07:11.897Z,2.65
2023-03-14T06:09:40.595Z,2.45
2023-03-14T06:12:08.070Z,2.95
2023-03-14T06:14:40.999Z,2.67
2023-03-14T06:17:09.271Z,2.80
2023-03-14T06:19:43.975Z,2.55
2023-03-14T06:22:13.598Z,2.75
2023-03-14T06:24:41.693Z,3.65
2023-03-14T06:27:09.077Z,3.85
2023-03-14T06:29:36.633Z,2.72
2023-03-14T06:32:05.531Z,2.55
2023-03-14T06:34:32.747Z,3.60
2023-03-14T06:36:59.948Z,3.28
2023-03-14T06:39:27.945Z,3.10
2023-03-14T06:42:03.733Z,2.85
2023-03-14T06:44:31.175Z,3.47
2023-03-14T06:46:58.712Z,2.80
2023-03-14T06:49:26.083Z,3.58
2023-03-14T06:51:55.722Z,3.63
2023-03-14T06:54:23.039Z,3.65
2023-03-14T06:56:50.273Z,2.90
2023-03-14T06:59:17.888Z,3.25
2023-03-14T07:01:49.294Z,4.22
2023-03-14T07:04:16.661Z,4.13
2023-03-14T07:06:48.644Z,3.25
2023-03-14T07:09:18.166Z,3.50
2023-03-14T07:11:51.323Z,3.25
2023-03-14T07:14:20.338Z,3.75
2023-03-14T07:16:48.206Z,3.28
2023-03-14T07:19:15.551Z,3.22
2023-03-14T07:21:42.881Z,2.65
2023-03-14T07:24:13.954Z,2.70
2023-03-14T07:26:41.378Z,3.08
2023-03-14T07:29:08.774Z,3.08
2023-03-14T07:31:36.071Z,2.70
2023-03-14T07:34:04.037Z,2.97
2023-03-14T07:36:35.809Z,3.17
2023-03-14T07:39:05.223Z,2.97
2023-03-14T07:41:41.677Z,3.47
2023-03-14T07:44:27.730Z,2.97
2023-03-14T07:46:55.291Z,3.63
2023-03-14T07:49:22.652Z,4.10
2023-03-14T07:51:49.939Z,3.05
2023-03-14T07:54:18.731Z,3.30
2023-03-14T07:59:14.581Z,3.15
2023-03-14T08:01:41.961Z,2.60
2023-03-14T08:04:09.606Z,3.20
2023-03-14T08:06:37.708Z,2.80
2023-03-14T08:09:05.670Z,3.83
2023-03-14T08:11:32.896Z,2.78
2023-03-14T08:14:00.285Z,2.80
2023-03-14T08:16:27.546Z,3.53
2023-03-14T08:18:54.751Z,2.80
2023-03-14T08:21:22.010Z,3.35
2023-03-14T08:23:49.319Z,3.30
2023-03-14T08:26:16.789Z,4.10
2023-03-14T08:28:44.050Z,3.75
2023-03-14T08:31:11.537Z,3.80
2023-03-14T08:33:38.901Z,2.92
2023-03-14T08:36:06.626Z,4.35
2023-03-14T08:38:33.885Z,3.05
2023-03-14T08:41:02.775Z,2.88
2023-03-14T08:43:30.428Z,3.38
2023-03-14T08:46:01.496Z,3.00
2023-03-14T08:48:30.755Z,3.30
2023-03-14T08:51:09.260Z,3.20
2023-03-14T08:53:36.640Z,2.40
2023-03-14T08:56:06.656Z,3.47
2023-03-14T09:01:01.385Z,3.83
2023-03-14T09:03:29.702Z,3.88
2023-03-14T09:05:57.085Z,2.42
2023-03-14T09:08:24.326Z,3.42
2023-03-14T09:10:51.551Z,3.15
2023-03-14T09:13:18.799Z,2.60
2023-03-14T09:15:46.032Z,2.65
2023-03-14T09:18:13.726Z,2.90
2023-03-14T09:20:41.353Z,2.83
2023-03-14T09:23:08.607Z,2.53
2023-03-14T09:25:35.936Z,2.50
2023-03-14T09:28:03.503Z,2.40
2023-03-14T09:30:30.800Z,2.92
2023-03-14T09:32:58.702Z,1.95
2023-03-14T09:35:26.415Z,2.30
2023-03-14T09:37:53.723Z,3.08
2023-03-14T09:40:21.480Z,1.85
2023-03-14T09:42:52.886Z,1.35
2023-03-14T09:45:27.876Z,1.30
2023-03-14T09:47:59.735Z,1.40
2023-03-14T09:50:32.441Z,1.77
2023-03-14T09:53:03.785Z,1.33
2023-03-14T09:55:33.266Z,2.20
2023-03-14T09:58:06.754Z,1.55
2023-03-14T10:00:34.255Z,1.30
2023-03-14T10:03:21.592Z,1.20
2023-03-14T10:05:48.999Z,1.33
2023-03-14T10:08:16.353Z,1.73
2023-03-14T10:10:43.837Z,0.80
2023-03-14T10:13:11.064Z,1.42
2023-03-14T10:15:39.008Z,1.60
2023-03-14T10:18:13.777Z,1.20
2023-03-14T10:20:45.925Z,1.60
2023-03-14T10:23:13.199Z,2.00
2023-03-14T10:25:47.402Z,1.77
2023-03-14T10:28:43.537Z,2.28
2023-03-14T10:31:11.070Z,1.70
2023-03-14T10:33:39.244Z,2.47
2023-03-14T10:36:20.568Z,2.10
2023-03-14T10:38:49.331Z,2.30
2023-03-14T10:41:27.549Z,2.38
2023-03-14T10:43:58.496Z,2.42
2023-03-14T10:46:27.395Z,1.90
2023-03-14T10:49:29.406Z,2.10
2023-03-14T10:51:56.781Z,2.15
2023-03-14T10:54:26.998Z,1.50
2023-03-14T10:56:59.103Z,1.50
2023-03-14T10:59:29.263Z,1.83
2023-03-14T11:02:00.824Z,1.55
2023-03-14T11:04:43.425Z,2.42
2023-03-14T11:07:30.487Z,1.80
2023-03-14T11:10:25.309Z,2.40
2023-03-14T11:13:13.005Z,1.80
2023-03-14T11:15:43.099Z,1.77
2023-03-14T11:21:05.785Z,2.90
2023-03-14T11:24:04.028Z,1.92
2023-03-14T11:26:35.348Z,2.13
2023-03-14T11:29:22.931Z,2.33
2023-03-14T11:31:50.285Z,1.85
2023-03-14T11:34:28.952Z,1.55
2023-03-14T11:37:06.496Z,3.08
2023-03-14T11:39:40.991Z,4.50
2023-03-14T11:42:13.943Z,2.55
2023-03-14T11:44:41.960Z,2.72
2023-03-14T11:47:11.437Z,2.20
2023-03-14T11:50:05.281Z,2.58
2023-03-14T11:52:37.004Z,2.28
2023-03-14T11:55:31.992Z,4.85
2023-03-14T11:58:20.876Z,4.70
2023-03-14T12:00:50.415Z,3.00
2023-03-14T12:03:36.649Z,2.30
2023-03-14T12:06:10.813Z,2.60
2023-03-14T12:08:44.638Z,1.98
2023-03-14T12:11:14.341Z,2.63
2023-03-14T12:13:42.527Z,2.05
2023-03-14T12:16:25.303Z,1.50
2023-03-14T12:18:53.509Z,1.83
2023-03-14T12:21:21.194Z,1.85
2023-03-14T12:23:56.278Z,1.90
2023-03-14T12:26:23.523Z,2.15
2023-03-14T12:29:00.248Z,1.83
2023-03-14T12:31:33.386Z,2.75
2023-03-14T12:34:12.552Z,2.28
2023-03-14T12:36:51.975Z,2.13
2023-03-14T12:42:02.271Z,5.63
2023-03-14T12:44:33.216Z,1.80
2023-03-14T12:47:01.528Z,2.60
2023-03-14T12:49:38.976Z,1.73
2023-03-14T12:52:14.697Z,1.80
2023-03-14T12:54:49.271Z,1.85
2023-03-14T12:57:50.780Z,2.17
2023-03-14T13:00:19.275Z,1.80
2023-03-14T13:02:49.369Z,2.00
2023-03-14T13:05:26.199Z,1.27
2023-03-14T13:07:56.620Z,1.40
2023-03-14T13:13:10.940Z,1.38
2023-03-14T13:15:43.698Z,1.60
2023-03-14T13:18:16.777Z,1.58
2023-03-14T13:20:51.564Z,1.88
2023-03-14T13:23:27.513Z,2.17
2023-03-14T13:25:55.402Z,1.98
2023-03-14T13:28:22.963Z,1.65
2023-03-14T13:30:52.272Z,1.70
2023-03-14T13:33:22.303Z,1.73
2023-03-14T13:35:56.700Z,2.17
2023-03-14T13:38:28.767Z,1.73
2023-03-14T13:41:01.423Z,1.90
2023-03-14T13:43:33.904Z,1.42
2023-03-14T13:46:15.214Z,1.55
2023-03-14T13:48:51.243Z,1.52
2023-03-14T13:51:20.174Z,1.67
2023-03-14T13:53:50.200Z,2.42
2023-03-14T13:58:47.337Z,1.85
2023-03-14T14:01:25.730Z,1.20
2023-03-14T14:03:54.771Z,1.98
2023-03-14T14:06:29.416Z,1.73
2023-03-14T14:08:58.240Z,1.38
2023-03-14T14:11:48.485Z,1.30
2023-03-14T14:14:50.582Z,1.58
2023-03-14T14:17:21.911Z,1.20
2023-03-14T14:19:49.621Z,1.70
2023-03-14T14:22:17.681Z,1.15
2023-03-14T14:24:45.117Z,1.40
2023-03-14T14:27:19.151Z,1.42
2023-03-14T14:30:04.853Z,1.67
2023-03-14T14:32:38.638Z,1.20
2023-03-14T14:35:07.409Z,1.25
2023-03-14T14:37:36.355Z,1.42
2023-03-14T14:40:15.928Z,0.75
2023-03-14T14:42:43.537Z,0.90
2023-03-14T14:45:24.861Z,1.08
2023-03-14T14:47:54.621Z,1.13
2023-03-14T14:50:30.370Z,1.20
2023-03-14T14:52:59.613Z,1.10
2023-03-14T14:55:44.715Z,1.33
2023-03-14T14:58:22.840Z,1.05
2023-03-14T15:01:04.931Z,1.23
2023-03-14T15:03:33.839Z,1.10
2023-03-14T15:06:02.743Z,0.65
2023-03-14T15:08:30.501Z,1.00
2023-03-14T15:10:58.235Z,0.90
2023-03-14T15:13:30.642Z,0.90
2023-03-14T15:15:58.504Z,1.00
2023-03-14T15:18:30.808Z,0.98
2023-03-14T15:20:58.374Z,0.90
2023-03-14T15:23:28.162Z,1.10
2023-03-14T15:25:56.707Z,1.00
2023-03-14T15:28:29.400Z,1.30
2023-03-14T15:30:58.864Z,1.17
2023-03-14T15:33:27.282Z,1.60
2023-03-14T15:35:54.816Z,0.90
2023-03-14T15:38:24.171Z,1.17
2023-03-14T15:40:52.509Z,1.00
2023-03-14T15:43:20.795Z,1.40
2023-03-14T15:45:48.560Z,1.65
2023-03-14T15:48:17.963Z,1.42
2023-03-14T15:50:45.332Z,1.57
2023-03-14T15:53:13.314Z,1.67
2023-03-14T15:55:40.567Z,2.33
2023-03-14T15:58:15.646Z,1.17
2023-03-14T16:00:43.148Z,1.95
2023-03-14T16:03:11.899Z,1.05
2023-03-14T16:05:40.118Z,1.10
2023-03-14T16:08:07.829Z,1.67
2023-03-14T16:10:35.334Z,1.35
2023-03-14T16:13:03.442Z,1.33
2023-03-14T16:15:31.025Z,1.55
2023-03-14T16:17:59.714Z,1.30
2023-03-14T16:20:38.661Z,1.73
2023-03-14T16:23:13.008Z,1.88
2023-03-14T16:25:40.365Z,1.77
2023-03-14T16:28:11.217Z,1.83
2023-03-14T16:30:40.272Z,1.38
2023-03-14T16:33:12.292Z,1.40
2023-03-14T16:35:40.938Z,1.70
2023-03-14T16:38:08.512Z,1.67
2023-03-14T16:40:35.949Z,1.75
2023-03-14T16:45:51.870Z,1.90
2023-03-14T16:48:19.482Z,1.63
2023-03-14T16:50:46.807Z,2.38
2023-03-14T16:53:14.374Z,1.40
2023-03-14T16:55:43.028Z,1.52
2023-03-14T16:58:10.724Z,1.50
2023-03-14T17:00:40.072Z,1.40
2023-03-14T17:03:07.893Z,1.67
2023-03-14T17:05:35.811Z,2.42
2023-03-14T17:08:03.200Z,1.30
2023-03-14T17:10:30.530Z,1.55
2023-03-14T17:12:58.174Z,1.58
2023-03-14T17:15:25.576Z,1.48
2023-03-14T17:17:52.880Z,1.10
2023-03-14T17:20:20.163Z,1.50
2023-03-14T17:22:47.394Z,1.20
2023-03-14T17:25:14.658Z,1.10
2023-03-14T17:27:43.489Z,1.30
2023-03-14T17:30:12.779Z,2.75
2023-03-14T17:32:40.142Z,2.10
2023-03-14T17:35:07.869Z,3.33
2023-03-14T17:37:35.900Z,1.73
2023-03-14T17:40:04.433Z,1.52
2023-03-14T17:42:31.717Z,1.27
2023-03-14T17:44:59.148Z,1.40
2023-03-14T17:47:26.706Z,1.27
2023-03-14T17:49:54.107Z,1.42
2023-03-14T17:52:21.335Z,1.13
2023-03-14T17:54:48.849Z,1.50
2023-03-14T17:57:16.115Z,1.75
2023-03-14T17:59:43.434Z,3.53
2023-03-14T18:02:11.574Z,1.85
2023-03-14T18:04:39.101Z,1.50
2023-03-14T18:07:09.000Z,1.73
2023-03-14T18:09:37.369Z,1.73
2023-03-14T18:12:08.318Z,2.00
2023-03-14T18:14:36.596Z,1.98
2023-03-14T18:17:04.921Z,1.98
2023-03-14T18:19:32.584Z,1.90
2023-03-14T18:21:59.931Z,1.83
2023-03-14T18:24:28.770Z,2.35
2023-03-14T18:26:56.506Z,1.88
2023-03-14T18:29:23.997Z,1.10
2023-03-14T18:31:51.407Z,1.05
2023-03-14T18:34:18.980Z,1.30
2023-03-14T18:36:46.514Z,1.45
2023-03-14T18:39:13.880Z,1.95
2023-03-14T18:41:41.459Z,1.70
2023-03-14T18:44:09.645Z,2.22
2023-03-14T18:46:37.280Z,1.60
2023-03-14T18:49:04.596Z,1.95
2023-03-14T18:51:33.897Z,2.13
2023-03-14T18:54:10.232Z,1.70
2023-03-14T18:56:41.562Z,1.35
2023-03-14T18:59:09.602Z,1.20
2023-03-14T19:01:37.900Z,1.40
2023-03-14T19:04:05.712Z,1.58
2023-03-14T19:06:33.362Z,1.92
2023-03-14T19:09:01.883Z,1.63
2023-03-14T19:11:29.223Z,2.00
2023-03-14T19:13:57.067Z,1.70
2023-03-14T19:16:24.853Z,1.73
2023-03-14T19:18:52.468Z,1.77
2023-03-14T19:21:32.731Z,1.88
2023-03-14T19:24:01.427Z,2.00
2023-03-14T19:26:38.331Z,2.38
2023-03-14T19:29:06.296Z,2.30
2023-03-14T19:31:33.708Z,2.38
2023-03-14T19:34:01.360Z,2.10
2023-03-14T19:36:31.449Z,1.60
2023-03-14T19:39:01.830Z,1.92
2023-03-14T19:41:29.537Z,2.10
2023-03-14T19:43:57.110Z,3.53
2023-03-14T19:46:25.262Z,2.95
2023-03-14T19:48:56.116Z,5.82
2023-03-14T19:51:24.032Z,4.00
2023-03-14T19:53:52.240Z,3.58
2023-03-14T19:56:20.819Z,2.92
2023-03-14T19:58:48.348Z,3.67
2023-03-14T20:01:15.784Z,3.42
2023-03-14T20:03:43.022Z,2.90
2023-03-14T20:06:12.376Z,2.40
2023-03-14T20:08:40.953Z,2.92
2023-03-14T20:11:08.932Z,2.65
2023-03-14T20:13:36.812Z,2.30
2023-03-14T20:16:05.755Z,2.45
2023-03-14T20:18:33.180Z,2.90
2023-03-14T20:21:00.481Z,3.00
2023-03-14T20:23:27.789Z,2.90
2023-03-14T20:25:59.430Z,2.70
2023-03-14T20:28:26.755Z,2.88
2023-03-14T20:30:54.180Z,2.70
2023-03-14T20:33:22.005Z,2.60
2023-03-14T20:35:59.898Z,3.13
2023-03-14T20:38:28.065Z,3.03
2023-03-14T20:40:59.430Z,3.28
2023-03-14T20:43:27.431Z,3.92
2023-03-14T20:45:56.075Z,3.38
2023-03-14T20:48:24.110Z,6.00
2023-03-14T20:50:51.923Z,5.70
2023-03-14T20:53:19.863Z,2.63
2023-03-14T20:55:47.567Z,4.25
2023-03-14T20:58:15.309Z,3.05
2023-03-14T21:00:48.274Z,2.90
2023-03-14T21:03:17.090Z,3.10
2023-03-14T21:05:46.769Z,3.20
2023-03-14T21:08:15.477Z,3.47
2023-03-14T21:10:42.753Z,3.30
2023-03-14T21:13:11.142Z,3.88
2023-03-14T21:15:38.543Z,4.10
2023-03-14T21:18:05.931Z,3.53
2023-03-14T21:20:34.350Z,3.63
2023-03-14T21:23:01.611Z,3.63
2023-03-14T21:25:29.124Z,3.25
2023-03-14T21:27:56.718Z,2.97
2023-03-14T21:30:25.140Z,3.30
2023-03-14T21:32:52.679Z,3.15
2023-03-14T21:35:21.444Z,3.67
2023-03-14T21:37:49.178Z,5.38
2023-03-14T21:40:16.485Z,5.25
2023-03-14T21:42:43.689Z,7.68
2023-03-14T21:45:12.480Z,5.40
2023-03-14T21:47:39.713Z,4.53
2023-03-14T21:50:07.303Z,3.38
2023-03-14T21:52:34.421Z,3.90
2023-03-14T21:55:03.619Z,4.60
2023-03-14T21:57:30.974Z,4.18
2023-03-14T21:59:58.178Z,4.57
2023-03-14T22:02:25.547Z,4.38
2023-03-14T22:04:54.635Z,4.93
2023-03-14T22:07:21.833Z,5.18
2023-03-14T22:09:49.165Z,6.00
2023-03-14T22:12:19.388Z,5.47
2023-03-14T22:14:47.807Z,5.60
2023-03-14T22:17:15.400Z,5.00
2023-03-14T22:19:42.646Z,5.20
2023-03-14T22:22:09.854Z,4.38
2023-03-14T22:24:37.051Z,4.90
2023-03-14T22:27:04.363Z,4.57
2023-03-14T22:29:31.529Z,5.43
2023-03-14T22:31:58.694Z,5.00
2023-03-14T22:34:31.405Z,4.80
2023-03-14T22:37:01.029Z,4.45
2023-03-14T22:39:28.539Z,4.85
2023-03-14T22:41:56.352Z,5.20
2023-03-14T22:44:24.758Z,5.72
2023-03-14T22:46:52.121Z,5.10
2023-03-14T22:49:19.385Z,4.88
2023-03-14T22:51:46.523Z,5.18
2023-03-14T22:54:13.699Z,4.53
2023-03-14T22:56:40.912Z,4.35
2023-03-14T22:59:09.230Z,5.38
2023-03-14T23:01:36.395Z,5.15
2023-03-14T23:04:03.587Z,5.55
2023-03-14T23:06:31.077Z,5.72
2023-03-14T23:08:58.211Z,5.68
2023-03-14T23:11:26.268Z,5.88
2023-03-14T23:13:53.728Z,5.78
2023-03-14T23:16:25.180Z,5.78
2023-03-14T23:18:57.637Z,4.63
2023-03-14T23:21:24.836Z,4.95
2023-03-14T23:23:52.263Z,5.38
2023-03-14T23:26:22.475Z,5.68
2023-03-14T23:28:50.619Z,5.18
2023-03-14T23:31:18.482Z,5.05
2023-03-14T23:33:45.861Z,4.88
2023-03-14T23:36:14.549Z,5.22
2023-03-14T23:38:42.769Z,5.30
2023-03-14T23:41:14.379Z,5.10
2023-03-14T23:43:43.084Z,5.40
2023-03-14T23:46:11.008Z,5.90
2023-03-14T23:48:38.517Z,5.20
2023-03-14T23:51:07.593Z,4.90
2023-03-14T23:53:35.129Z,5.13
2023-03-14T23:56:02.542Z,4.72
2023-03-14T23:58:35.904Z,4.57
